Time;durP1;ratioP1;P1;durP2;ratioP2;P2;SDS_P1;SDS_P2;PMS_P1;PMS_P2;Temp;Humidity;BMP_temperature;BMP_pressure;BME280_temperature;BME280_humidity;BME280_pressure;Samples;Min_cycle;Max_cycle;Signal;HPM_P1;HPM_P2
2022/04/02 00:02:21;;;;;;;22.05;11.43;;;2.70;99.90;;;;;;4952583;29;20051;-68
2022/04/02 00:04:48;;;;;;;11.52;7.05;;;2.60;99.90;;;;;;4952153;29;20055;-68
2022/04/02 00:07:15;;;;;;;8.60;5.22;;;2.60;99.90;;;;;;4952180;28;20043;-69
2022/04/02 00:09:43;;;;;;;5.10;3.40;;;2.60;99.90;;;;;;4953109;28;20051;-68
2022/04/02 00:12:09;;;;;;;7.72;3.05;;;2.60;99.90;;;;;;4952128;29;20443;-68
2022/04/02 00:14:36;;;;;;;6.30;2.80;;;2.60;99.90;;;;;;4952542;29;20074;-68
2022/04/02 00:17:03;;;;;;;5.72;2.65;;;2.60;99.90;;;;;;4954974;28;20101;-68
2022/04/02 00:19:31;;;;;;;5.38;2.88;;;2.60;99.90;;;;;;4952472;29;20170;-68
2022/04/02 00:21:58;;;;;;;5.63;3.03;;;2.60;99.90;;;;;;4951956;29;20140;-72
2022/04/02 00:24:25;;;;;;;8.85;3.03;;;2.60;99.90;;;;;;4950484;29;20360;-67
2022/04/02 00:26:52;;;;;;;6.90;3.05;;;2.50;99.90;;;;;;4952429;29;20066;-68
2022/04/02 00:29:19;;;;;;;9.00;2.83;;;2.50;99.90;;;;;;4950406;28;20146;-70
2022/04/02 00:31:46;;;;;;;3.78;2.25;;;2.50;99.90;;;;;;4952274;29;20542;-67
2022/04/02 00:34:13;;;;;;;5.05;2.63;;;2.40;99.90;;;;;;4952498;28;20057;-71
2022/04/02 00:36:40;;;;;;;7.13;3.15;;;2.40;99.90;;;;;;4952865;28;20047;-67
2022/04/02 00:39:07;;;;;;;7.07;3.72;;;2.30;99.90;;;;;;4942053;29;20062;-69
2022/04/02 00:41:34;;;;;;;30.15;17.70;;;2.30;99.90;;;;;;4953552;28;20043;-67
2022/04/02 00:44:11;;;;;;;31.27;16.17;;;2.30;99.90;;;;;;4951858;29;20047;-67
2022/04/02 00:46:39;;;;;;;24.52;14.15;;;2.30;99.90;;;;;;4933471;29;20048;-67
2022/04/02 00:49:07;;;;;;;10.38;6.22;;;2.20;99.90;;;;;;4947603;29;20039;-67
2022/04/02 00:51:37;;;;;;;7.50;4.40;;;2.10;99.90;;;;;;4953336;28;20047;-67
2022/04/02 00:54:05;;;;;;;10.57;4.60;;;2.10;99.90;;;;;;4952064;29;20422;-70
2022/04/02 00:56:31;;;;;;;6.82;2.70;;;2.10;99.90;;;;;;4952297;29;20062;-68
2022/04/02 00:58:58;;;;;;;7.55;3.58;;;2.10;99.90;;;;;;4933127;29;20153;-69
2022/04/02 01:01:25;;;;;;;5.45;2.10;;;2.10;99.90;;;;;;4952980;28;20109;-68
2022/04/02 01:03:52;;;;;;;6.65;3.30;;;2.00;99.90;;;;;;4953568;29;20133;-68
2022/04/02 01:06:19;;;;;;;4.53;2.45;;;2.00;99.90;;;;;;4951678;28;20066;-68
2022/04/02 01:08:46;;;;;;;8.85;3.28;;;2.10;99.90;;;;;;4951934;29;20070;-68
2022/04/02 01:11:13;;;;;;;7.35;2.90;;;2.10;99.90;;;;;;4939164;29;20047;-67
2022/04/02 01:13:40;;;;;;;5.93;2.60;;;2.10;99.90;;;;;;4964814;28;20055;-68
2022/04/02 01:16:08;;;;;;;9.90;2.47;;;2.10;99.90;;;;;;4952643;28;20058;-67
2022/04/02 01:18:35;;;;;;;6.88;2.97;;;2.10;99.90;;;;;;4954976;29;20047;-72
2022/04/02 01:21:02;;;;;;;9.73;2.65;;;2.10;99.90;;;;;;4955259;29;20434;-66
2022/04/02 01:23:29;;;;;;;5.97;2.58;;;2.00;99.90;;;;;;4953509;29;20055;-68
2022/04/02 01:25:58;;;;;;;5.47;2.67;;;2.00;99.90;;;;;;4954964;29;20058;-73
2022/04/02 01:28:25;;;;;;;139.55;85.85;;;1.90;99.90;;;;;;4955013;29;20066;-67
2022/04/02 01:30:52;;;;;;;39.67;24.60;;;1.90;99.90;;;;;;4955334;29;20051;-69
2022/04/02 01:33:19;;;;;;;66.05;39.22;;;1.90;99.90;;;;;;4927473;29;20057;-67
2022/04/02 01:35:57;;;;;;;25.13;11.65;;;1.90;99.90;;;;;;4948788;29;20062;-68
2022/04/02 01:38:24;;;;;;;14.23;5.82;;;1.90;99.90;;;;;;4936352;29;20479;-68
2022/04/02 01:40:51;;;;;;;9.25;5.75;;;1.90;99.90;;;;;;4935299;29;20056;-68
2022/04/02 01:43:17;;;;;;;5.85;3.53;;;1.80;99.90;;;;;;4946372;29;20055;-68
2022/04/02 01:45:44;;;;;;;7.13;3.30;;;1.80;99.90;;;;;;4954700;29;20052;-68
2022/04/02 01:48:11;;;;;;;7.38;3.55;;;1.70;99.90;;;;;;4955628;29;20098;-68
2022/04/02 01:50:38;;;;;;;10.05;3.67;;;1.70;99.90;;;;;;4939317;29;20047;-68
2022/04/02 01:53:05;;;;;;;6.40;2.75;;;1.70;99.90;;;;;;4954890;29;20054;-68
2022/04/02 01:55:32;;;;;;;6.85;3.33;;;1.70;99.90;;;;;;4955783;28;20057;-68
2022/04/02 01:57:59;;;;;;;5.85;2.83;;;1.70;99.90;;;;;;4955998;29;20095;-68
2022/04/02 02:00:25;;;;;;;8.45;3.85;;;1.70;99.90;;;;;;4939032;29;20051;-68
2022/04/02 02:02:52;;;;;;;5.60;3.03;;;1.70;99.90;;;;;;4928317;29;20060;-68
2022/04/02 02:05:20;;;;;;;10.23;3.67;;;1.70;99.90;;;;;;4954361;29;20502;-68
2022/04/02 02:07:50;;;;;;;4.15;2.95;;;1.70;99.90;;;;;;4963860;28;20051;-70
2022/04/02 02:10:18;;;;;;;6.18;3.65;;;1.70;99.90;;;;;;4957123;28;20054;-68
2022/04/02 02:12:46;;;;;;;7.38;3.05;;;1.70;99.90;;;;;;4953144;29;20047;-68
2022/04/02 02:15:16;;;;;;;14.38;3.92;;;1.70;99.90;;;;;;4954540;29;20894;-68
2022/04/02 02:17:44;;;;;;;9.57;3.78;;;1.70;99.90;;;;;;4953978;29;20103;-68
2022/04/02 02:20:12;;;;;;;6.82;4.25;;;1.70;99.90;;;;;;4928503;29;20051;-69
2022/04/02 02:22:39;;;;;;;5.97;3.92;;;1.70;99.90;;;;;;4953111;28;20495;-68
2022/04/02 02:25:07;;;;;;;5.35;3.33;;;1.70;99.90;;;;;;4952905;29;20053;-69
2022/04/02 02:27:35;;;;;;;7.88;3.28;;;1.70;99.90;;;;;;4954325;28;20066;-68
2022/04/02 02:30:06;;;;;;;46.90;28.70;;;1.70;99.90;;;;;;4951812;29;20070;-66
2022/04/02 02:32:36;;;;;;;12.77;7.10;;;1.80;99.90;;;;;;4941757;28;20059;-67
2022/04/02 02:37:50;;;;;;;9.35;5.40;;;1.80;99.90;;;;;;4947633;29;20055;-67
2022/04/02 02:40:16;;;;;;;10.02;4.65;;;1.80;99.90;;;;;;4952698;29;20380;-66
2022/04/02 02:42:43;;;;;;;8.48;4.95;;;1.80;99.90;;;;;;4954241;29;20055;-66
2022/04/02 02:45:11;;;;;;;8.45;4.78;;;1.80;99.90;;;;;;4953230;29;20426;-66
2022/04/02 02:47:38;;;;;;;8.25;4.18;;;1.70;99.90;;;;;;4947551;28;20066;-65
2022/04/02 02:50:06;;;;;;;10.88;4.43;;;1.70;99.90;;;;;;4952860;29;20044;-66
2022/04/02 02:52:33;;;;;;;7.30;4.15;;;1.70;99.90;;;;;;4953876;29;20121;-66
2022/04/02 02:55:00;;;;;;;8.25;4.47;;;1.70;99.90;;;;;;4954036;29;20047;-67
2022/04/02 02:57:26;;;;;;;8.90;4.85;;;1.70;99.90;;;;;;4952494;29;20050;-66
2022/04/02 02:59:54;;;;;;;7.97;4.72;;;1.60;99.90;;;;;;4953293;29;20055;-66
2022/04/02 03:02:21;;;;;;;5.90;3.95;;;1.70;99.90;;;;;;4950564;29;20082;-66
2022/04/02 03:04:48;;;;;;;10.40;5.78;;;1.60;99.90;;;;;;4924138;29;20059;-66
2022/04/02 03:07:15;;;;;;;10.73;5.07;;;1.60;99.90;;;;;;4949509;29;20051;-66
2022/04/02 03:09:42;;;;;;;7.75;4.47;;;1.60;99.90;;;;;;4954037;28;20135;-66
2022/04/02 03:12:11;;;;;;;11.75;5.00;;;1.60;99.90;;;;;;4953110;29;20490;-66
2022/04/02 03:14:38;;;;;;;7.65;4.20;;;1.60;99.90;;;;;;4921212;29;20079;-65
2022/04/02 03:17:05;;;;;;;11.18;5.80;;;1.60;99.90;;;;;;4937220;29;20062;-65
2022/04/02 03:19:31;;;;;;;8.40;4.60;;;1.60;99.90;;;;;;4944930;28;20048;-65
2022/04/02 03:21:59;;;;;;;11.20;5.07;;;1.60;99.90;;;;;;4934304;29;20056;-65
2022/04/02 03:24:27;;;;;;;6.47;4.30;;;1.50;99.90;;;;;;4947893;29;20215;-66
2022/04/02 03:26:54;;;;;;;10.98;5.18;;;1.50;99.90;;;;;;4954210;28;20046;-66
2022/04/02 03:29:21;;;;;;;9.07;5.15;;;1.50;99.90;;;;;;4951663;28;20066;-65
2022/04/02 03:31:48;;;;;;;9.23;4.40;;;1.50;99.90;;;;;;4948671;29;20399;-66
2022/04/02 03:34:15;;;;;;;20.95;8.23;;;1.40;99.90;;;;;;4935879;29;20451;-62
2022/04/02 03:36:42;;;;;;;121.43;88.53;;;1.40;99.90;;;;;;4952667;29;20054;-63
2022/04/02 03:39:09;;;;;;;29.20;18.67;;;1.40;99.90;;;;;;4952217;28;20499;-66
2022/04/02 03:41:36;;;;;;;15.73;9.07;;;1.40;99.90;;;;;;4952262;29;20495;-67
2022/04/02 03:44:03;;;;;;;10.85;7.60;;;1.40;99.90;;;;;;4953847;28;20123;-66
2022/04/02 03:49:15;;;;;;;10.35;5.15;;;1.40;99.90;;;;;;4954403;28;20395;-68
2022/04/02 03:51:42;;;;;;;8.80;5.18;;;1.40;99.90;;;;;;4948844;29;20047;-66
2022/04/02 03:54:09;;;;;;;10.00;5.25;;;1.30;99.90;;;;;;4952735;28;20062;-66
2022/04/02 03:56:36;;;;;;;9.27;6.18;;;1.40;99.90;;;;;;4952961;28;20055;-66
2022/04/02 03:59:03;;;;;;;11.32;5.25;;;1.30;99.90;;;;;;4951870;29;20043;-65
2022/04/02 04:01:30;;;;;;;12.35;5.53;;;1.30;99.90;;;;;;4953258;29;20050;-66
2022/04/02 04:03:57;;;;;;;7.82;4.80;;;1.30;99.90;;;;;;4952022;29;20051;-66
2022/04/02 04:06:23;;;;;;;8.65;5.75;;;1.30;99.90;;;;;;4953124;28;20047;-66
2022/04/02 04:08:52;;;;;;;17.83;6.25;;;1.30;99.90;;;;;;4938009;28;20055;-67
2022/04/02 04:11:19;;;;;;;12.35;5.65;;;1.30;99.90;;;;;;4952618;28;20051;-66
2022/04/02 04:13:46;;;;;;;8.98;5.60;;;1.20;99.90;;;;;;4961543;28;20058;-68
2022/04/02 04:16:13;;;;;;;8.90;4.72;;;1.20;99.90;;;;;;4941347;29;20055;-68
2022/04/02 04:18:40;;;;;;;8.90;5.60;;;1.20;99.90;;;;;;4952236;29;20102;-66
2022/04/02 04:21:07;;;;;;;6.63;4.93;;;1.10;99.90;;;;;;4954591;28;20505;-66
2022/04/02 04:23:34;;;;;;;10.05;5.30;;;1.10;99.90;;;;;;4953317;28;20082;-67
2022/04/02 04:26:01;;;;;;;8.88;6.07;;;1.10;99.90;;;;;;4952099;29;20075;-65
2022/04/02 04:28:28;;;;;;;10.38;5.18;;;1.20;99.90;;;;;;4953312;29;20101;-66
2022/04/02 04:30:55;;;;;;;11.52;6.25;;;1.20;99.90;;;;;;4953699;28;20050;-65
2022/04/02 04:33:22;;;;;;;12.95;6.00;;;1.20;99.90;;;;;;4952906;29;20069;-65
2022/04/02 04:35:49;;;;;;;8.20;5.22;;;1.20;99.90;;;;;;4952130;29;20051;-65
2022/04/02 04:38:17;;;;;;;8.73;5.70;;;1.20;99.90;;;;;;4951808;29;20463;-66
2022/04/02 04:40:44;;;;;;;9.65;5.85;;;1.20;99.90;;;;;;4951121;29;20058;-65
2022/04/02 04:43:11;;;;;;;10.15;6.55;;;1.20;99.90;;;;;;4951841;29;20051;-66
2022/04/02 04:45:38;;;;;;;13.15;5.82;;;1.10;99.90;;;;;;4952166;29;20169;-66
2022/04/02 04:48:05;;;;;;;11.05;6.05;;;1.20;99.90;;;;;;4952760;28;20043;-72
2022/04/02 04:50:32;;;;;;;9.00;5.43;;;1.10;99.90;;;;;;4944525;29;20432;-65
2022/04/02 04:52:59;;;;;;;8.93;5.35;;;1.10;99.90;;;;;;4954433;28;20505;-67
2022/04/02 04:55:25;;;;;;;8.98;6.03;;;1.10;99.90;;;;;;4942858;29;20062;-67
2022/04/02 04:57:52;;;;;;;8.43;5.40;;;1.10;99.90;;;;;;4955039;29;20047;-65
2022/04/02 05:00:20;;;;;;;9.68;6.95;;;1.10;99.90;;;;;;4956416;28;20062;-65
2022/04/02 05:02:47;;;;;;;11.93;6.03;;;1.00;99.90;;;;;;4957058;28;20406;-65
2022/04/02 05:05:14;;;;;;;10.30;6.40;;;1.00;99.90;;;;;;4956289;28;20051;-66
2022/04/02 05:07:55;;;;;;;12.93;6.18;;;1.00;99.90;;;;;;4944716;29;20043;-65
2022/04/02 05:10:22;;;;;;;10.70;5.20;;;1.00;99.90;;;;;;4954078;29;20055;-66
2022/04/02 05:12:49;;;;;;;13.32;7.95;;;1.00;99.90;;;;;;4954599;29;20051;-65
2022/04/02 05:15:16;;;;;;;9.88;6.53;;;1.00;99.90;;;;;;4956722;29;20110;-65
2022/04/02 05:17:43;;;;;;;12.48;6.18;;;1.00;99.90;;;;;;4956035;28;20043;-65
2022/04/02 05:20:12;;;;;;;8.60;6.03;;;1.00;99.90;;;;;;4954420;29;20054;-66
2022/04/02 05:22:39;;;;;;;8.32;5.95;;;0.90;99.90;;;;;;4935473;29;20056;-66
2022/04/02 05:25:06;;;;;;;12.63;6.40;;;0.90;99.90;;;;;;4952131;29;20438;-66
2022/04/02 05:27:33;;;;;;;12.32;7.07;;;0.90;99.90;;;;;;4931177;29;20078;-65
2022/04/02 05:30:00;;;;;;;12.80;6.68;;;0.90;99.90;;;;;;4955056;29;20051;-65
2022/04/02 05:32:30;;;;;;;11.13;6.60;;;1.00;99.90;;;;;;4955986;28;20491;-66
2022/04/02 05:34:57;;;;;;;;;;;1.00;99.90;;;;;;4940043;29;20047;-66
2022/04/02 05:37:24;;;;;;;14.88;7.10;;;0.90;99.90;;;;;;4950196;29;19973;-66
2022/04/02 05:39:51;;;;;;;14.38;7.22;;;0.90;99.90;;;;;;4935205;29;20058;-65
2022/04/02 05:42:18;;;;;;;12.65;6.72;;;1.00;99.90;;;;;;4950178;29;20062;-65
2022/04/02 05:44:45;;;;;;;13.73;7.30;;;1.00;99.90;;;;;;4954190;29;20051;-67
2022/04/02 05:47:12;;;;;;;14.15;6.90;;;1.00;99.90;;;;;;4955458;28;20044;-65
2022/04/02 05:49:43;;;;;;;8.57;5.88;;;1.00;99.90;;;;;;4954178;29;20051;-66
2022/04/02 05:52:10;;;;;;;11.75;6.72;;;1.00;99.90;;;;;;4937296;28;20098;-65
2022/04/02 05:54:37;;;;;;;10.15;6.50;;;1.00;99.90;;;;;;4938211;29;20047;-65
2022/04/02 05:57:04;;;;;;;13.18;7.07;;;1.00;99.90;;;;;;4951114;29;20514;-65
2022/04/02 05:59:32;;;;;;;10.75;7.47;;;1.00;99.90;;;;;;4953464;29;20073;-65
2022/04/02 06:01:59;;;;;;;16.00;7.15;;;1.00;99.90;;;;;;4950201;29;20055;-65
2022/04/02 06:04:28;;;;;;;12.60;6.75;;;0.90;99.90;;;;;;4954225;28;20513;-66
2022/04/02 06:06:55;;;;;;;10.73;6.82;;;0.90;99.90;;;;;;4954488;29;20081;-65
2022/04/02 06:09:22;;;;;;;13.40;8.00;;;0.90;99.90;;;;;;4954188;29;20046;-65
2022/04/02 06:11:49;;;;;;;9.80;7.15;;;0.90;99.90;;;;;;4954109;29;20055;-65
2022/04/02 06:14:16;;;;;;;12.60;8.00;;;0.90;99.90;;;;;;4955724;28;20047;-65
2022/04/02 06:16:44;;;;;;;12.23;7.70;;;0.90;99.90;;;;;;4953848;29;20043;-65
2022/04/02 06:19:10;;;;;;;10.70;6.90;;;0.80;99.90;;;;;;4953956;29;20043;-65
2022/04/02 06:21:37;;;;;;;11.05;7.13;;;0.80;99.90;;;;;;4957374;28;20059;-65
2022/04/02 06:24:06;;;;;;;11.38;7.68;;;0.80;99.90;;;;;;4954241;28;20047;-74
2022/04/02 06:26:34;;;;;;;9.63;6.97;;;0.80;99.90;;;;;;4954004;29;20051;-66
2022/04/02 06:29:00;;;;;;;13.48;9.20;;;0.80;99.90;;;;;;4954089;29;20102;-65
2022/04/02 06:31:27;;;;;;;11.15;7.38;;;0.80;99.90;;;;;;4954412;28;20522;-66
2022/04/02 06:33:54;;;;;;;11.32;7.75;;;0.80;99.90;;;;;;4955195;29;20133;-66
2022/04/02 06:36:21;;;;;;;13.43;8.05;;;0.80;99.90;;;;;;4953926;29;20051;-66
2022/04/02 06:38:49;;;;;;;15.02;8.27;;;0.80;99.90;;;;;;4952343;28;20056;-65
2022/04/02 06:41:15;;;;;;;15.98;8.93;;;0.90;99.90;;;;;;4954474;28;20483;-65
2022/04/02 06:43:42;;;;;;;14.15;8.55;;;0.90;99.90;;;;;;4953410;29;20055;-65
2022/04/02 06:46:09;;;;;;;14.68;8.23;;;1.00;99.90;;;;;;4953689;29;20065;-65
2022/04/02 06:48:36;;;;;;;13.32;7.50;;;1.10;99.90;;;;;;4954128;29;20120;-65
2022/04/02 06:51:05;;;;;;;13.02;7.50;;;1.10;99.90;;;;;;4953527;29;20051;-66
2022/04/02 06:53:32;;;;;;;12.18;8.38;;;1.30;99.90;;;;;;4955095;28;20048;-65
2022/04/02 06:55:59;;;;;;;10.70;6.97;;;1.30;99.90;;;;;;4953077;29;20051;-65
2022/04/02 06:58:35;;;;;;;12.02;7.60;;;1.50;99.90;;;;;;4953685;29;20055;-67
2022/04/02 07:01:01;;;;;;;15.13;7.72;;;1.50;99.90;;;;;;4953482;29;20047;-66
2022/04/02 07:03:28;;;;;;;12.45;7.40;;;1.60;99.90;;;;;;4954003;29;20083;-66
2022/04/02 07:05:56;;;;;;;9.57;6.85;;;1.70;99.90;;;;;;4953971;29;20403;-65
2022/04/02 07:08:23;;;;;;;14.32;9.52;;;1.80;99.90;;;;;;4948365;29;20040;-65
2022/04/02 07:10:50;;;;;;;12.55;7.40;;;1.80;99.90;;;;;;4944673;29;20098;-66
2022/04/02 07:13:17;;;;;;;11.80;6.75;;;1.90;99.90;;;;;;4954242;29;20047;-66
2022/04/02 07:15:44;;;;;;;11.20;7.60;;;2.00;99.90;;;;;;4954231;28;20063;-66
2022/04/02 07:18:11;;;;;;;10.75;7.25;;;2.10;99.90;;;;;;4953178;29;20047;-66
2022/04/02 07:20:39;;;;;;;11.30;7.63;;;2.10;99.90;;;;;;4952443;29;20146;-66
2022/04/02 07:23:09;;;;;;;10.57;6.35;;;2.20;99.90;;;;;;4953989;28;20070;-66
2022/04/02 07:25:40;;;;;;;10.15;7.32;;;2.30;99.90;;;;;;4952565;29;20063;-65
2022/04/02 07:28:07;;;;;;;10.82;6.88;;;2.40;99.90;;;;;;4937312;29;20578;-65
2022/04/02 07:30:35;;;;;;;12.05;7.28;;;2.50;99.90;;;;;;4952838;29;20062;-65
2022/04/02 07:33:02;;;;;;;10.68;7.05;;;2.50;99.90;;;;;;4952820;29;20387;-65
2022/04/02 07:35:54;;;;;;;10.63;6.78;;;2.70;99.90;;;;;;4952634;29;20054;-65
2022/04/02 07:38:27;;;;;;;11.98;6.60;;;2.80;99.90;;;;;;4940666;29;20055;-66
2022/04/02 07:41:24;;;;;;;10.52;6.68;;;2.80;99.90;;;;;;4926524;29;20047;-66
2022/04/02 07:43:52;;;;;;;11.48;6.05;;;2.90;99.90;;;;;;4952437;28;20079;-67
2022/04/02 07:46:23;;;;;;;7.88;5.65;;;3.00;99.90;;;;;;4954034;28;20398;-65
2022/04/02 07:48:50;;;;;;;10.27;6.60;;;3.20;99.90;;;;;;4952557;29;20051;-65
2022/04/02 07:51:18;;;;;;;11.05;6.60;;;3.30;99.90;;;;;;4952739;29;20059;-65
2022/04/02 07:53:49;;;;;;;15.57;6.03;;;3.40;99.90;;;;;;4949874;29;20490;-65
2022/04/02 07:56:28;;;;;;;12.95;6.45;;;3.40;99.90;;;;;;4951424;29;20055;-65
2022/04/02 07:59:00;;;;;;;7.50;5.27;;;3.40;99.90;;;;;;4952233;29;20055;-66
2022/04/02 08:01:27;;;;;;;7.75;5.60;;;3.50;99.90;;;;;;4953475;28;20043;-65
2022/04/02 08:03:54;;;;;;;8.13;5.40;;;3.60;99.90;;;;;;4952265;29;20047;-65
2022/04/02 08:06:22;;;;;;;11.23;7.30;;;3.70;99.90;;;;;;4952159;29;20044;-65
2022/04/02 08:08:49;;;;;;;10.70;5.43;;;3.80;99.90;;;;;;4956483;28;20039;-65
2022/04/02 08:11:18;;;;;;;8.55;4.82;;;3.90;99.90;;;;;;4935282;29;20059;-66
2022/04/02 08:13:45;;;;;;;7.28;4.68;;;3.90;99.90;;;;;;4953538;28;20446;-65
2022/04/02 08:16:12;;;;;;;7.25;4.93;;;4.00;99.90;;;;;;4952981;28;20051;-65
2022/04/02 08:18:40;;;;;;;9.63;4.70;;;4.00;99.90;;;;;;4952058;29;20051;-65
2022/04/02 08:21:10;;;;;;;9.57;5.25;;;4.00;99.90;;;;;;4953415;28;20050;-66
2022/04/02 08:23:38;;;;;;;8.98;5.20;;;4.00;99.90;;;;;;4950898;29;20063;-66
2022/04/02 08:26:26;;;;;;;12.07;5.25;;;4.00;99.90;;;;;;4951115;28;20491;-66
2022/04/02 08:29:22;;;;;;;6.35;4.95;;;4.10;99.90;;;;;;4949703;29;20071;-65
2022/04/02 08:31:57;;;;;;;8.23;4.82;;;4.20;99.90;;;;;;4949763;29;20510;-65
2022/04/02 08:35:06;;;;;;;8.70;5.57;;;4.30;99.90;;;;;;4955643;29;20513;-66
2022/04/02 08:38:03;;;;;;;10.57;4.90;;;4.30;99.90;;;;;;4948167;29;20051;-66
2022/04/02 08:40:36;;;;;;;5.82;3.97;;;4.40;99.90;;;;;;4936105;29;20047;-65
2022/04/02 08:43:15;;;;;;;7.32;4.40;;;4.50;99.90;;;;;;4957360;29;20051;-73
2022/04/02 08:46:10;;;;;;;6.90;4.53;;;4.60;99.90;;;;;;4956889;29;20130;-66
2022/04/02 08:48:39;;;;;;;9.25;4.78;;;4.80;99.90;;;;;;4956023;29;20411;-65
2022/04/02 08:51:14;;;;;;;9.95;5.55;;;4.90;99.90;;;;;;4933642;29;20117;-65
2022/04/02 08:54:07;;;;;;;5.93;3.40;;;5.00;99.90;;;;;;4951933;29;20053;-65
2022/04/02 08:56:39;;;;;;;10.25;4.53;;;5.10;99.90;;;;;;4944673;29;20074;-66
2022/04/02 08:59:06;;;;;;;8.93;3.75;;;5.10;99.90;;;;;;4938016;29;20043;-65
2022/04/02 09:01:57;;;;;;;13.32;4.53;;;5.10;99.90;;;;;;4955905;28;20051;-65
2022/04/02 09:04:49;;;;;;;7.93;3.88;;;5.10;99.90;;;;;;4955635;29;20073;-66
2022/04/02 09:07:34;;;;;;;7.05;3.72;;;5.20;99.90;;;;;;4956373;29;20053;-65
2022/04/02 09:10:41;;;;;;;4.80;3.53;;;5.30;99.90;;;;;;4945245;28;20047;-65
2022/04/02 09:13:27;;;;;;;5.15;3.08;;;5.40;99.90;;;;;;4947286;29;20051;-65
2022/04/02 09:16:07;;;;;;;9.50;3.05;;;5.60;99.90;;;;;;4954861;29;20051;-65
2022/04/02 09:18:46;;;;;;;7.30;3.10;;;5.60;99.90;;;;;;4948052;29;20403;-66
2022/04/02 09:21:32;;;;;;;5.38;2.83;;;5.70;99.90;;;;;;4956218;28;20054;-66
2022/04/02 09:24:03;;;;;;;6.97;3.35;;;5.80;99.90;;;;;;4954778;29;20067;-66
2022/04/02 09:27:08;;;;;;;5.68;2.70;;;5.90;99.90;;;;;;4954186;29;20134;-68
2022/04/02 09:29:53;;;;;;;7.68;2.97;;;6.10;99.90;;;;;;4955723;29;20495;-65
2022/04/02 09:32:51;;;;;;;5.60;2.33;;;6.20;98.90;;;;;;4954475;29;20058;-66
2022/04/02 09:35:36;;;;;;;8.45;2.50;;;6.40;95.90;;;;;;4946816;29;20047;-65
2022/04/02 09:38:35;;;;;;;4.60;2.42;;;6.40;97.20;;;;;;4955570;28;20495;-67
2022/04/02 09:41:17;;;;;;;7.80;3.17;;;6.60;97.90;;;;;;4929416;29;20061;-65
2022/04/02 09:44:17;;;;;;;5.88;2.65;;;6.90;97.80;;;;;;4941783;29;20047;-65
2022/04/02 09:46:48;;;;;;;6.38;2.95;;;7.10;94.50;;;;;;4910863;29;20051;-66
2022/04/02 09:49:27;;;;;;;5.45;2.22;;;7.20;95.40;;;;;;4952932;29;20111;-66
2022/04/02 09:52:01;;;;;;;5.22;2.00;;;7.40;94.70;;;;;;4956287;29;20051;-66
2022/04/02 09:54:38;;;;;;;5.70;2.10;;;7.20;91.20;;;;;;4938212;29;20512;-66
2022/04/02 09:57:16;;;;;;;5.20;2.20;;;7.10;90.60;;;;;;4954215;29;20043;-66
2022/04/02 10:00:06;;;;;;;4.85;1.88;;;7.20;91.90;;;;;;4938562;29;20051;-66
2022/04/02 10:03:11;;;;;;;7.45;3.47;;;7.30;91.00;;;;;;4939094;29;20059;-66
2022/04/02 10:05:49;;;;;;;4.13;2.22;;;7.40;90.00;;;;;;4952591;29;20094;-66
2022/04/02 10:08:38;;;;;;;3.90;2.10;;;7.40;92.70;;;;;;4953611;28;20132;-66
2022/04/02 10:11:05;;;;;;;5.93;2.38;;;7.50;90.10;;;;;;4951533;29;20055;-66
2022/04/02 10:13:34;;;;;;;4.78;1.92;;;7.50;91.40;;;;;;4955819;28;20062;-68
2022/04/02 10:16:01;;;;;;;7.43;2.50;;;7.50;88.40;;;;;;4956665;28;20483;-73
2022/04/02 10:18:28;;;;;;;4.93;1.85;;;7.40;90.90;;;;;;4935468;29;20051;-67
2022/04/02 10:20:54;;;;;;;4.32;1.67;;;7.40;90.00;;;;;;4951143;29;20048;-66
2022/04/02 10:23:24;;;;;;;3.40;1.50;;;7.50;86.10;;;;;;4938052;29;20055;-66
2022/04/02 10:25:56;;;;;;;6.03;1.67;;;7.40;85.10;;;;;;4955083;28;20401;-67
2022/04/02 10:28:29;;;;;;;3.33;1.58;;;7.50;84.30;;;;;;4955877;28;20082;-67
2022/04/02 10:31:00;;;;;;;4.45;1.30;;;7.30;81.20;;;;;;4953133;29;20057;-67
2022/04/02 10:33:31;;;;;;;4.43;1.42;;;7.20;81.40;;;;;;4936584;29;20055;-67
2022/04/02 10:35:58;;;;;;;6.80;2.80;;;7.10;84.00;;;;;;4952323;29;20415;-67
2022/04/02 10:38:38;;;;;;;8.00;2.25;;;7.10;82.30;;;;;;4935411;29;20048;-67
2022/04/02 10:41:09;;;;;;;3.85;1.67;;;7.00;81.20;;;;;;4932482;29;20130;-69
2022/04/02 10:44:19;;;;;;;11.55;6.05;;;7.20;82.60;;;;;;4934499;29;20055;-69
2022/04/02 10:46:46;;;;;;;7.30;2.15;;;7.40;82.80;;;;;;4931334;29;20055;-67
2022/04/02 10:49:17;;;;;;;3.30;2.13;;;7.60;82.40;;;;;;4934513;29;20055;-67
2022/04/02 10:51:44;;;;;;;10.10;2.80;;;7.60;82.00;;;;;;4918969;29;20056;-68
2022/04/02 10:54:13;;;;;;;136.20;106.45;;;7.50;77.30;;;;;;4934963;29;20051;-67
2022/04/02 10:56:47;;;;;;;43.67;21.27;;;7.60;79.20;;;;;;4934365;29;20079;-71
2022/04/02 10:59:15;;;;;;;7.15;4.15;;;7.40;78.00;;;;;;4934899;29;20074;-65
2022/04/02 11:01:43;;;;;;;5.05;3.10;;;7.30;81.10;;;;;;4934903;29;20068;-76
2022/04/02 11:04:37;;;;;;;3.92;1.75;;;7.10;79.60;;;;;;4919383;29;20487;-68
2022/04/02 11:07:04;;;;;;;10.77;5.72;;;7.00;80.10;;;;;;4921097;29;20499;-67
2022/04/02 11:09:41;;;;;;;13.45;10.20;;;7.10;80.10;;;;;;4945941;28;20047;-68
2022/04/02 11:12:17;;;;;;;8.43;6.30;;;7.10;81.20;;;;;;4953472;29;20510;-68
2022/04/02 11:14:45;;;;;;;6.55;2.42;;;7.10;81.50;;;;;;4954903;28;20059;-70
2022/04/02 11:17:32;;;;;;;10.13;4.50;;;7.10;79.40;;;;;;4938150;29;20059;-69
2022/04/02 11:20:06;;;;;;;8.63;2.80;;;7.10;77.30;;;;;;4953637;29;20055;-70
2022/04/02 11:22:48;;;;;;;4.28;1.80;;;7.20;79.60;;;;;;4953174;29;20059;-64
2022/04/02 11:25:24;;;;;;;6.68;2.08;;;7.30;77.40;;;;;;4937463;29;20066;-71
2022/04/02 11:27:56;;;;;;;2.72;1.75;;;7.50;78.90;;;;;;4953083;29;20054;-68
2022/04/02 11:30:27;;;;;;;4.03;1.90;;;7.70;80.30;;;;;;4922663;29;20118;-67
2022/04/02 11:33:04;;;;;;;6.57;2.08;;;7.70;76.50;;;;;;4954584;28;20126;-67
2022/04/02 11:35:36;;;;;;;6.70;2.80;;;7.80;73.00;;;;;;4938070;29;20051;-51
2022/04/02 11:38:22;;;;;;;5.55;1.75;;;8.00;73.80;;;;;;4953168;29;20055;-67
2022/04/02 11:41:01;;;;;;;9.25;2.65;;;8.30;71.30;;;;;;4950864;29;20058;-66
2022/04/02 11:43:32;;;;;;;5.03;1.80;;;8.50;69.80;;;;;;4936491;29;20056;-69
2022/04/02 11:46:00;;;;;;;3.15;2.00;;;8.60;70.50;;;;;;4951176;29;20051;-67
2022/04/02 11:48:36;;;;;;;8.68;1.83;;;8.50;70.40;;;;;;4952718;29;20062;-67
2022/04/02 11:51:20;;;;;;;6.45;1.88;;;8.60;72.00;;;;;;4950952;28;20050;-67
2022/04/02 11:53:47;;;;;;;6.88;1.83;;;8.60;69.50;;;;;;4921170;29;20051;-66
2022/04/02 11:56:25;;;;;;;4.60;1.48;;;8.70;69.40;;;;;;4949713;29;20048;-67
2022/04/02 11:58:54;;;;;;;5.53;1.67;;;8.30;65.90;;;;;;4942846;29;20407;-66
2022/04/02 12:01:22;;;;;;;2.90;1.40;;;8.30;66.70;;;;;;4944615;29;20263;-69
2022/04/02 12:04:14;;;;;;;2.53;1.38;;;8.30;64.10;;;;;;4942690;29;20051;-69
2022/04/02 12:06:42;;;;;;;3.05;1.20;;;8.30;62.50;;;;;;4942287;29;20051;-77
2022/04/02 12:09:20;;;;;;;3.30;1.50;;;8.40;60.50;;;;;;4951197;29;20058;-68
2022/04/02 12:11:57;;;;;;;3.08;1.25;;;8.50;60.50;;;;;;4929093;29;20047;-71
2022/04/02 12:14:37;;;;;;;3.65;1.63;;;8.50;58.20;;;;;;4949535;29;20054;-70
2022/04/02 12:17:05;;;;;;;4.28;1.45;;;8.60;59.80;;;;;;4952138;28;20059;-71
2022/04/02 12:19:53;;;;;;;3.78;1.20;;;8.70;61.00;;;;;;4931557;29;20070;-70
2022/04/02 12:22:34;;;;;;;2.70;1.50;;;8.90;58.90;;;;;;4944410;29;20067;-70
2022/04/02 12:25:05;;;;;;;3.35;1.30;;;9.10;59.50;;;;;;4943866;29;20048;-68
2022/04/02 12:27:33;;;;;;;28.77;19.83;;;9.10;59.50;;;;;;4927060;29;20062;-68
2022/04/02 12:30:06;;;;;;;4.55;2.60;;;9.10;59.80;;;;;;4945706;29;20078;-69
2022/04/02 12:32:36;;;;;;;3.55;1.60;;;9.10;62.00;;;;;;4925695;29;20048;-78
2022/04/02 12:35:13;;;;;;;3.78;1.42;;;9.00;60.10;;;;;;4942845;28;20048;-68
2022/04/02 12:37:44;;;;;;;3.67;1.25;;;8.80;59.20;;;;;;4927563;29;20539;-69
2022/04/02 12:40:22;;;;;;;3.65;1.25;;;8.70;58.70;;;;;;4945689;29;20098;-69
2022/04/02 12:43:05;;;;;;;3.42;1.75;;;8.60;62.60;;;;;;4931135;29;20056;-70
2022/04/02 12:45:33;;;;;;;3.13;1.20;;;8.60;63.80;;;;;;4909455;29;20051;-71
2022/04/02 12:48:14;;;;;;;4.90;1.75;;;8.70;60.30;;;;;;4940027;29;20122;-69
2022/04/02 12:50:58;;;;;;;2.90;1.30;;;8.90;60.50;;;;;;4950097;29;20058;-73
2022/04/02 12:53:37;;;;;;;10.77;6.30;;;9.00;64.00;;;;;;4915446;29;20043;-71
2022/04/02 12:56:18;;;;;;;5.20;2.67;;;9.00;62.40;;;;;;4932955;29;20507;-69
2022/04/02 12:58:49;;;;;;;34.60;25.05;;;9.00;61.60;;;;;;4949868;29;20055;-67
2022/04/02 13:01:25;;;;;;;5.68;2.22;;;9.10;61.70;;;;;;4945239;29;20099;-69
2022/04/02 13:03:59;;;;;;;4.22;1.65;;;9.10;59.40;;;;;;4944472;29;20040;-69
2022/04/02 13:06:28;;;;;;;5.00;1.77;;;9.10;60.80;;;;;;4946417;29;20088;-69
2022/04/02 13:09:04;;;;;;;3.83;1.85;;;9.10;59.40;;;;;;4920159;29;20055;-72
2022/04/02 13:11:42;;;;;;;3.08;1.70;;;8.90;62.10;;;;;;4927699;29;20111;-71
2022/04/02 13:14:16;;;;;;;3.22;1.02;;;8.80;63.70;;;;;;4945434;29;20062;-71
2022/04/02 13:16:48;;;;;;;4.28;1.50;;;8.80;64.10;;;;;;4950679;29;20051;-69
2022/04/02 13:22:08;;;;;;;7.57;1.90;;;8.90;64.30;;;;;;4951591;29;20122;-68
2022/04/02 13:24:41;;;;;;;;;;;9.00;63.90;;;;;;4952355;29;20047;-73